sensor_id;sensor_type;location;lat;lon;timestamp;P1;durP1;ratioP1;P2;durP2;ratioP2
8247;SDS011;4164;49.844;8.830;2022-11-14T00:01:18;15.47;;;9.10;;
8247;SDS011;4164;49.844;8.830;2022-11-14T00:03:43;13.67;;;9.30;;
8247;SDS011;4164;49.844;8.830;2022-11-14T00:06:09;15.47;;;9.47;;
8247;SDS011;4164;49.844;8.830;2022-11-14T00:08:35;13.60;;;9.60;;
8247;SDS011;4164;49.844;8.830;2022-11-14T00:11:01;15.07;;;9.37;;
8247;SDS011;4164;49.844;8.830;2022-11-14T00:13:27;12.80;;;7.93;;
8247;SDS011;4164;49.844;8.830;2022-11-14T00:15:52;14.00;;;9.57;;
8247;SDS011;4164;49.844;8.830;2022-11-14T00:18:18;16.43;;;9.73;;
8247;SDS011;4164;49.844;8.830;2022-11-14T00:20:47;15.77;;;10.17;;
8247;SDS011;4164;49.844;8.830;2022-11-14T00:23:14;20.47;;;12.27;;
8247;SDS011;4164;49.844;8.830;2022-11-14T00:25:39;15.23;;;9.90;;
8247;SDS011;4164;49.844;8.830;2022-11-14T00:28:05;13.57;;;9.50;;
8247;SDS011;4164;49.844;8.830;2022-11-14T00:30:30;16.00;;;10.57;;
8247;SDS011;4164;49.844;8.830;2022-11-14T00:32:56;16.90;;;10.00;;
8247;SDS011;4164;49.844;8.830;2022-11-14T00:35:21;14.63;;;9.40;;
8247;SDS011;4164;49.844;8.830;2022-11-14T00:37:47;18.97;;;10.70;;
8247;SDS011;4164;49.844;8.830;2022-11-14T00:40:12;15.53;;;10.37;;
8247;SDS011;4164;49.844;8.830;2022-11-14T00:42:41;15.10;;;10.00;;
8247;SDS011;4164;49.844;8.830;2022-11-14T00:45:06;18.67;;;10.63;;
8247;SDS011;4164;49.844;8.830;2022-11-14T00:47:32;17.43;;;10.50;;
8247;SDS011;4164;49.844;8.830;2022-11-14T00:49:58;17.57;;;11.27;;
8247;SDS011;4164;49.844;8.830;2022-11-14T00:52:24;19.13;;;11.60;;
8247;SDS011;4164;49.844;8.830;2022-11-14T00:54:49;18.03;;;10.90;;
8247;SDS011;4164;49.844;8.830;2022-11-14T00:57:15;15.57;;;11.10;;
8247;SDS011;4164;49.844;8.830;2022-11-14T00:59:40;16.33;;;10.70;;
8247;SDS011;4164;49.844;8.830;2022-11-14T01:02:06;17.27;;;10.93;;
8247;SDS011;4164;49.844;8.830;2022-11-14T01:04:31;17.23;;;11.37;;
8247;SDS011;4164;49.844;8.830;2022-11-14T01:06:57;21.83;;;12.47;;
8247;SDS011;4164;49.844;8.830;2022-11-14T01:09:22;20.23;;;11.27;;
8247;SDS011;4164;49.844;8.830;2022-11-14T01:11:48;17.27;;;11.63;;
8247;SDS011;4164;49.844;8.830;2022-11-14T01:14:13;20.43;;;12.10;;
8247;SDS011;4164;49.844;8.830;2022-11-14T01:16:39;21.67;;;12.30;;
8247;SDS011;4164;49.844;8.830;2022-11-14T01:19:04;20.40;;;12.67;;
8247;SDS011;4164;49.844;8.830;2022-11-14T01:21:32;18.80;;;12.03;;
8247;SDS011;4164;49.844;8.830;2022-11-14T01:23:58;19.37;;;12.10;;
8247;SDS011;4164;49.844;8.830;2022-11-14T01:26:24;20.60;;;11.50;;
8247;SDS011;4164;49.844;8.830;2022-11-14T01:28:49;18.33;;;11.13;;
8247;SDS011;4164;49.844;8.830;2022-11-14T01:31:17;19.87;;;12.10;;
8247;SDS011;4164;49.844;8.830;2022-11-14T01:33:49;16.83;;;10.97;;
8247;SDS011;4164;49.844;8.830;2022-11-14T01:36:15;18.97;;;12.10;;
8247;SDS011;4164;49.844;8.830;2022-11-14T01:38:41;22.20;;;12.20;;
8247;SDS011;4164;49.844;8.830;2022-11-14T01:41:08;20.17;;;12.93;;
8247;SDS011;4164;49.844;8.830;2022-11-14T01:43:37;17.10;;;11.63;;
8247;SDS011;4164;49.844;8.830;2022-11-14T01:46:04;17.60;;;11.90;;
8247;SDS011;4164;49.844;8.830;2022-11-14T01:49:04;20.30;;;11.63;;
8247;SDS011;4164;49.844;8.830;2022-11-14T01:54:33;18.20;;;11.07;;
8247;SDS011;4164;49.844;8.830;2022-11-14T01:57:02;19.50;;;12.10;;
8247;SDS011;4164;49.844;8.830;2022-11-14T01:59:39;22.90;;;13.27;;
8247;SDS011;4164;49.844;8.830;2022-11-14T02:02:15;20.17;;;13.17;;
8247;SDS011;4164;49.844;8.830;2022-11-14T02:04:46;20.23;;;12.87;;
8247;SDS011;4164;49.844;8.830;2022-11-14T02:07:15;15.80;;;11.07;;
8247;SDS011;4164;49.844;8.830;2022-11-14T02:09:43;19.10;;;12.57;;
8247;SDS011;4164;49.844;8.830;2022-11-14T02:12:12;19.87;;;12.37;;
8247;SDS011;4164;49.844;8.830;2022-11-14T02:14:40;21.37;;;12.17;;
8247;SDS011;4164;49.844;8.830;2022-11-14T02:17:09;18.87;;;11.83;;
8247;SDS011;4164;49.844;8.830;2022-11-14T02:19:42;18.13;;;11.50;;
8247;SDS011;4164;49.844;8.830;2022-11-14T02:22:18;22.27;;;13.43;;
8247;SDS011;4164;49.844;8.830;2022-11-14T02:24:43;21.33;;;13.37;;
8247;SDS011;4164;49.844;8.830;2022-11-14T02:27:10;25.33;;;14.20;;
8247;SDS011;4164;49.844;8.830;2022-11-14T02:29:38;27.03;;;15.57;;
8247;SDS011;4164;49.844;8.830;2022-11-14T02:32:03;29.27;;;15.13;;
8247;SDS011;4164;49.844;8.830;2022-11-14T02:34:29;33.63;;;19.03;;
8247;SDS011;4164;49.844;8.830;2022-11-14T02:36:55;26.07;;;12.73;;
8247;SDS011;4164;49.844;8.830;2022-11-14T02:39:21;31.73;;;15.83;;
8247;SDS011;4164;49.844;8.830;2022-11-14T02:41:48;27.57;;;15.53;;
8247;SDS011;4164;49.844;8.830;2022-11-14T02:44:14;22.40;;;14.40;;
8247;SDS011;4164;49.844;8.830;2022-11-14T02:46:43;21.73;;;13.03;;
8247;SDS011;4164;49.844;8.830;2022-11-14T02:49:09;21.73;;;12.80;;
8247;SDS011;4164;49.844;8.830;2022-11-14T02:51:34;21.33;;;12.57;;
8247;SDS011;4164;49.844;8.830;2022-11-14T02:54:00;19.47;;;11.80;;
8247;SDS011;4164;49.844;8.830;2022-11-14T02:56:26;18.37;;;11.80;;
8247;SDS011;4164;49.844;8.830;2022-11-14T02:58:51;17.40;;;12.03;;
8247;SDS011;4164;49.844;8.830;2022-11-14T03:01:17;19.90;;;11.50;;
8247;SDS011;4164;49.844;8.830;2022-11-14T03:03:43;17.47;;;10.80;;
8247;SDS011;4164;49.844;8.830;2022-11-14T03:06:08;17.93;;;11.23;;
8247;SDS011;4164;49.844;8.830;2022-11-14T03:08:34;18.77;;;12.37;;
8247;SDS011;4164;49.844;8.830;2022-11-14T03:11:07;16.60;;;11.90;;
8247;SDS011;4164;49.844;8.830;2022-11-14T03:13:33;19.47;;;11.93;;
8247;SDS011;4164;49.844;8.830;2022-11-14T03:16:06;18.03;;;11.63;;
8247;SDS011;4164;49.844;8.830;2022-11-14T03:18:32;20.37;;;11.83;;
8247;SDS011;4164;49.844;8.830;2022-11-14T03:21:03;16.97;;;11.07;;
8247;SDS011;4164;49.844;8.830;2022-11-14T03:23:33;18.93;;;11.67;;
8247;SDS011;4164;49.844;8.830;2022-11-14T03:26:02;18.90;;;11.73;;
8247;SDS011;4164;49.844;8.830;2022-11-14T03:28:29;18.17;;;11.37;;
8247;SDS011;4164;49.844;8.830;2022-11-14T03:30:55;19.03;;;11.93;;
8247;SDS011;4164;49.844;8.830;2022-11-14T03:33:21;19.83;;;12.17;;
8247;SDS011;4164;49.844;8.830;2022-11-14T03:35:50;19.13;;;12.87;;
8247;SDS011;4164;49.844;8.830;2022-11-14T03:38:16;23.17;;;14.13;;
8247;SDS011;4164;49.844;8.830;2022-11-14T03:40:42;21.97;;;12.93;;
8247;SDS011;4164;49.844;8.830;2022-11-14T03:43:08;27.23;;;15.30;;
8247;SDS011;4164;49.844;8.830;2022-11-14T03:45:37;27.50;;;14.80;;
8247;SDS011;4164;49.844;8.830;2022-11-14T03:48:03;29.60;;;16.63;;
8247;SDS011;4164;49.844;8.830;2022-11-14T03:50:30;27.67;;;16.20;;
8247;SDS011;4164;49.844;8.830;2022-11-14T03:52:55;28.93;;;16.93;;
8247;SDS011;4164;49.844;8.830;2022-11-14T03:55:21;29.37;;;17.23;;
8247;SDS011;4164;49.844;8.830;2022-11-14T03:57:46;28.53;;;16.30;;
8247;SDS011;4164;49.844;8.830;2022-11-14T04:00:12;28.13;;;16.50;;
8247;SDS011;4164;49.844;8.830;2022-11-14T04:02:38;27.40;;;15.70;;
8247;SDS011;4164;49.844;8.830;2022-11-14T04:05:03;25.47;;;15.80;;
8247;SDS011;4164;49.844;8.830;2022-11-14T04:07:29;26.17;;;15.97;;
8247;SDS011;4164;49.844;8.830;2022-11-14T04:09:54;24.47;;;15.30;;
8247;SDS011;4164;49.844;8.830;2022-11-14T04:12:20;23.00;;;14.43;;
8247;SDS011;4164;49.844;8.830;2022-11-14T04:14:45;23.53;;;14.73;;
8247;SDS011;4164;49.844;8.830;2022-11-14T04:17:11;23.93;;;15.20;;
8247;SDS011;4164;49.844;8.830;2022-11-14T04:19:36;25.40;;;15.37;;
8247;SDS011;4164;49.844;8.830;2022-11-14T04:22:02;29.97;;;16.53;;
8247;SDS011;4164;49.844;8.830;2022-11-14T04:24:27;31.60;;;18.83;;
8247;SDS011;4164;49.844;8.830;2022-11-14T04:26:53;24.83;;;14.50;;
8247;SDS011;4164;49.844;8.830;2022-11-14T04:29:19;24.20;;;15.57;;
8247;SDS011;4164;49.844;8.830;2022-11-14T04:31:44;25.03;;;16.47;;
8247;SDS011;4164;49.844;8.830;2022-11-14T04:34:10;25.43;;;15.40;;
8247;SDS011;4164;49.844;8.830;2022-11-14T04:36:36;25.33;;;15.87;;
8247;SDS011;4164;49.844;8.830;2022-11-14T04:39:01;25.40;;;15.57;;
8247;SDS011;4164;49.844;8.830;2022-11-14T04:41:27;29.27;;;17.57;;
8247;SDS011;4164;49.844;8.830;2022-11-14T04:43:52;29.60;;;18.73;;
8247;SDS011;4164;49.844;8.830;2022-11-14T04:46:18;29.13;;;17.30;;
8247;SDS011;4164;49.844;8.830;2022-11-14T04:48:44;26.87;;;17.03;;
8247;SDS011;4164;49.844;8.830;2022-11-14T04:51:09;31.43;;;18.67;;
8247;SDS011;4164;49.844;8.830;2022-11-14T04:53:35;30.37;;;18.93;;
8247;SDS011;4164;49.844;8.830;2022-11-14T04:56:00;28.83;;;18.03;;
8247;SDS011;4164;49.844;8.830;2022-11-14T04:58:26;29.17;;;17.77;;
8247;SDS011;4164;49.844;8.830;2022-11-14T05:00:51;27.63;;;17.57;;
8247;SDS011;4164;49.844;8.830;2022-11-14T05:03:17;30.07;;;17.50;;
8247;SDS011;4164;49.844;8.830;2022-11-14T05:05:42;28.27;;;16.90;;
8247;SDS011;4164;49.844;8.830;2022-11-14T05:08:08;27.00;;;17.03;;
8247;SDS011;4164;49.844;8.830;2022-11-14T05:10:34;26.87;;;17.17;;
8247;SDS011;4164;49.844;8.830;2022-11-14T05:12:59;28.50;;;16.80;;
8247;SDS011;4164;49.844;8.830;2022-11-14T05:15:25;28.50;;;17.80;;
8247;SDS011;4164;49.844;8.830;2022-11-14T05:17:51;27.53;;;16.90;;
8247;SDS011;4164;49.844;8.830;2022-11-14T05:20:16;27.53;;;17.20;;
8247;SDS011;4164;49.844;8.830;2022-11-14T05:22:42;29.10;;;18.63;;
8247;SDS011;4164;49.844;8.830;2022-11-14T05:25:08;27.80;;;16.37;;
8247;SDS011;4164;49.844;8.830;2022-11-14T05:27:34;32.57;;;18.03;;
8247;SDS011;4164;49.844;8.830;2022-11-14T05:29:59;28.13;;;16.73;;
8247;SDS011;4164;49.844;8.830;2022-11-14T05:32:25;28.33;;;16.87;;
8247;SDS011;4164;49.844;8.830;2022-11-14T05:34:50;28.47;;;16.73;;
8247;SDS011;4164;49.844;8.830;2022-11-14T05:37:16;27.17;;;16.07;;
8247;SDS011;4164;49.844;8.830;2022-11-14T05:39:41;28.17;;;17.10;;
8247;SDS011;4164;49.844;8.830;2022-11-14T05:42:10;34.23;;;18.27;;
8247;SDS011;4164;49.844;8.830;2022-11-14T05:44:35;30.03;;;17.40;;
8247;SDS011;4164;49.844;8.830;2022-11-14T05:47:01;30.53;;;17.57;;
8247;SDS011;4164;49.844;8.830;2022-11-14T05:49:26;29.60;;;17.60;;
8247;SDS011;4164;49.844;8.830;2022-11-14T05:51:52;28.90;;;17.77;;
8247;SDS011;4164;49.844;8.830;2022-11-14T05:54:17;30.50;;;17.30;;
8247;SDS011;4164;49.844;8.830;2022-11-14T05:56:43;33.40;;;18.83;;
8247;SDS011;4164;49.844;8.830;2022-11-14T05:59:08;27.13;;;16.97;;
8247;SDS011;4164;49.844;8.830;2022-11-14T06:01:34;32.03;;;18.47;;
8247;SDS011;4164;49.844;8.830;2022-11-14T06:03:59;30.73;;;18.50;;
8247;SDS011;4164;49.844;8.830;2022-11-14T06:06:25;32.80;;;19.17;;
8247;SDS011;4164;49.844;8.830;2022-11-14T06:08:51;33.27;;;18.03;;
8247;SDS011;4164;49.844;8.830;2022-11-14T06:11:18;29.80;;;18.50;;
8247;SDS011;4164;49.844;8.830;2022-11-14T06:13:45;30.13;;;18.17;;
8247;SDS011;4164;49.844;8.830;2022-11-14T06:16:12;35.07;;;18.03;;
8247;SDS011;4164;49.844;8.830;2022-11-14T06:18:39;33.07;;;17.67;;
8247;SDS011;4164;49.844;8.830;2022-11-14T06:21:12;29.77;;;17.17;;
8247;SDS011;4164;49.844;8.830;2022-11-14T06:23:42;32.83;;;17.80;;
8247;SDS011;4164;49.844;8.830;2022-11-14T06:26:41;35.23;;;18.07;;
8247;SDS011;4164;49.844;8.830;2022-11-14T06:29:00;33.43;;;17.67;;
8247;SDS011;4164;49.844;8.830;2022-11-14T06:31:25;33.23;;;16.17;;
8247;SDS011;4164;49.844;8.830;2022-11-14T06:33:51;32.23;;;17.70;;
8247;SDS011;4164;49.844;8.830;2022-11-14T06:36:17;32.23;;;16.97;;
8247;SDS011;4164;49.844;8.830;2022-11-14T06:38:43;29.40;;;16.60;;
8247;SDS011;4164;49.844;8.830;2022-11-14T06:41:13;29.30;;;16.00;;
8247;SDS011;4164;49.844;8.830;2022-11-14T06:43:46;28.33;;;15.90;;
8247;SDS011;4164;49.844;8.830;2022-11-14T06:46:14;27.27;;;15.77;;
8247;SDS011;4164;49.844;8.830;2022-11-14T06:48:41;26.37;;;15.13;;
8247;SDS011;4164;49.844;8.830;2022-11-14T06:51:08;26.93;;;16.03;;
8247;SDS011;4164;49.844;8.830;2022-11-14T06:53:34;28.93;;;16.37;;
8247;SDS011;4164;49.844;8.830;2022-11-14T06:56:02;26.90;;;16.10;;
8247;SDS011;4164;49.844;8.830;2022-11-14T06:58:40;27.00;;;15.33;;
8247;SDS011;4164;49.844;8.830;2022-11-14T07:01:15;27.27;;;16.73;;
8247;SDS011;4164;49.844;8.830;2022-11-14T07:03:43;31.67;;;16.33;;
8247;SDS011;4164;49.844;8.830;2022-11-14T07:06:10;30.30;;;16.57;;
8247;SDS011;4164;49.844;8.830;2022-11-14T07:08:40;29.60;;;17.13;;
8247;SDS011;4164;49.844;8.830;2022-11-14T07:11:10;28.20;;;16.57;;
8247;SDS011;4164;49.844;8.830;2022-11-14T07:13:53;29.73;;;16.37;;
8247;SDS011;4164;49.844;8.830;2022-11-14T07:16:30;29.30;;;16.07;;
8247;SDS011;4164;49.844;8.830;2022-11-14T07:18:59;32.60;;;17.87;;
8247;SDS011;4164;49.844;8.830;2022-11-14T07:21:26;28.53;;;16.80;;
8247;SDS011;4164;49.844;8.830;2022-11-14T07:23:52;31.23;;;16.80;;
8247;SDS011;4164;49.844;8.830;2022-11-14T07:26:18;31.67;;;16.63;;
8247;SDS011;4164;49.844;8.830;2022-11-14T07:28:44;27.00;;;16.17;;
8247;SDS011;4164;49.844;8.830;2022-11-14T07:31:11;29.90;;;16.93;;
8247;SDS011;4164;49.844;8.830;2022-11-14T07:33:38;29.23;;;16.73;;
8247;SDS011;4164;49.844;8.830;2022-11-14T07:36:04;33.67;;;17.87;;
8247;SDS011;4164;49.844;8.830;2022-11-14T07:38:31;30.23;;;16.97;;
8247;SDS011;4164;49.844;8.830;2022-11-14T07:40:59;28.83;;;15.83;;
8247;SDS011;4164;49.844;8.830;2022-11-14T07:43:32;26.77;;;15.93;;
8247;SDS011;4164;49.844;8.830;2022-11-14T07:45:58;31.00;;;17.97;;
8247;SDS011;4164;49.844;8.830;2022-11-14T07:48:25;31.73;;;16.87;;
8247;SDS011;4164;49.844;8.830;2022-11-14T07:50:51;31.20;;;17.10;;
8247;SDS011;4164;49.844;8.830;2022-11-14T07:53:17;29.33;;;16.83;;
8247;SDS011;4164;49.844;8.830;2022-11-14T07:55:43;28.60;;;15.63;;
8247;SDS011;4164;49.844;8.830;2022-11-14T07:58:09;31.33;;;17.17;;
8247;SDS011;4164;49.844;8.830;2022-11-14T08:00:34;27.73;;;16.57;;
8247;SDS011;4164;49.844;8.830;2022-11-14T08:03:00;29.40;;;15.97;;
8247;SDS011;4164;49.844;8.830;2022-11-14T08:05:26;26.37;;;16.63;;
8247;SDS011;4164;49.844;8.830;2022-11-14T08:07:51;29.63;;;15.93;;
8247;SDS011;4164;49.844;8.830;2022-11-14T08:10:17;25.80;;;15.07;;
8247;SDS011;4164;49.844;8.830;2022-11-14T08:12:43;25.67;;;14.80;;
8247;SDS011;4164;49.844;8.830;2022-11-14T08:15:10;24.93;;;15.10;;
8247;SDS011;4164;49.844;8.830;2022-11-14T08:17:36;23.47;;;13.67;;
8247;SDS011;4164;49.844;8.830;2022-11-14T08:20:03;22.43;;;15.00;;
8247;SDS011;4164;49.844;8.830;2022-11-14T08:22:29;24.97;;;13.87;;
8247;SDS011;4164;49.844;8.830;2022-11-14T08:24:55;20.50;;;13.23;;
8247;SDS011;4164;49.844;8.830;2022-11-14T08:27:21;21.90;;;14.17;;
8247;SDS011;4164;49.844;8.830;2022-11-14T08:29:47;21.07;;;13.33;;
8247;SDS011;4164;49.844;8.830;2022-11-14T08:32:12;23.30;;;13.10;;
8247;SDS011;4164;49.844;8.830;2022-11-14T08:34:39;24.33;;;14.10;;
8247;SDS011;4164;49.844;8.830;2022-11-14T08:37:04;22.53;;;13.90;;
8247;SDS011;4164;49.844;8.830;2022-11-14T08:39:30;21.90;;;13.07;;
8247;SDS011;4164;49.844;8.830;2022-11-14T08:41:56;21.67;;;12.90;;
8247;SDS011;4164;49.844;8.830;2022-11-14T08:44:21;22.57;;;14.17;;
8247;SDS011;4164;49.844;8.830;2022-11-14T08:46:48;20.93;;;12.60;;
8247;SDS011;4164;49.844;8.830;2022-11-14T08:49:14;22.73;;;13.93;;
8247;SDS011;4164;49.844;8.830;2022-11-14T08:51:39;21.57;;;13.17;;
8247;SDS011;4164;49.844;8.830;2022-11-14T08:54:05;19.63;;;12.73;;
8247;SDS011;4164;49.844;8.830;2022-11-14T08:56:31;19.23;;;12.30;;
8247;SDS011;4164;49.844;8.830;2022-11-14T08:58:57;18.33;;;12.07;;
8247;SDS011;4164;49.844;8.830;2022-11-14T09:01:22;19.47;;;12.27;;
8247;SDS011;4164;49.844;8.830;2022-11-14T09:03:48;18.77;;;11.60;;
8247;SDS011;4164;49.844;8.830;2022-11-14T09:06:13;18.23;;;10.90;;
8247;SDS011;4164;49.844;8.830;2022-11-14T09:08:39;18.17;;;12.13;;
8247;SDS011;4164;49.844;8.830;2022-11-14T09:11:04;16.43;;;11.30;;
8247;SDS011;4164;49.844;8.830;2022-11-14T09:13:31;16.77;;;11.67;;
8247;SDS011;4164;49.844;8.830;2022-11-14T09:15:57;17.57;;;11.70;;
8247;SDS011;4164;49.844;8.830;2022-11-14T09:18:23;14.50;;;10.20;;
8247;SDS011;4164;49.844;8.830;2022-11-14T09:20:49;17.13;;;11.80;;
8247;SDS011;4164;49.844;8.830;2022-11-14T09:23:14;15.67;;;11.60;;
8247;SDS011;4164;49.844;8.830;2022-11-14T09:25:40;15.10;;;11.10;;
8247;SDS011;4164;49.844;8.830;2022-11-14T09:28:06;15.63;;;10.73;;
8247;SDS011;4164;49.844;8.830;2022-11-14T09:30:33;15.60;;;11.30;;
8247;SDS011;4164;49.844;8.830;2022-11-14T09:32:59;17.03;;;9.63;;
8247;SDS011;4164;49.844;8.830;2022-11-14T09:35:29;14.33;;;9.63;;
8247;SDS011;4164;49.844;8.830;2022-11-14T09:38:02;14.57;;;9.57;;
8247;SDS011;4164;49.844;8.830;2022-11-14T09:40:30;15.00;;;9.87;;
8247;SDS011;4164;49.844;8.830;2022-11-14T09:43:08;13.20;;;9.87;;
8247;SDS011;4164;49.844;8.830;2022-11-14T09:45:41;13.07;;;9.43;;
8247;SDS011;4164;49.844;8.830;2022-11-14T09:48:13;11.57;;;9.37;;
8247;SDS011;4164;49.844;8.830;2022-11-14T09:50:49;15.17;;;10.10;;
8247;SDS011;4164;49.844;8.830;2022-11-14T09:53:33;10.67;;;8.80;;
8247;SDS011;4164;49.844;8.830;2022-11-14T09:56:11;11.50;;;8.83;;
8247;SDS011;4164;49.844;8.830;2022-11-14T09:58:38;13.63;;;9.73;;
8247;SDS011;4164;49.844;8.830;2022-11-14T10:01:08;12.27;;;9.10;;
8247;SDS011;4164;49.844;8.830;2022-11-14T10:09:49;12.67;;;9.40;;
8247;SDS011;4164;49.844;8.830;2022-11-14T10:12:31;12.13;;;9.30;;
8247;SDS011;4164;49.844;8.830;2022-11-14T10:15:05;11.07;;;8.37;;
8247;SDS011;4164;49.844;8.830;2022-11-14T10:20:54;12.23;;;9.20;;
8247;SDS011;4164;49.844;8.830;2022-11-14T10:26:29;9.20;;;7.40;;
8247;SDS011;4164;49.844;8.830;2022-11-14T10:32:02;8.43;;;7.13;;
8247;SDS011;4164;49.844;8.830;2022-11-14T10:34:31;12.47;;;9.30;;
8247;SDS011;4164;49.844;8.830;2022-11-14T10:37:05;10.03;;;8.70;;
8247;SDS011;4164;49.844;8.830;2022-11-14T10:40:12;9.57;;;8.57;;
8247;SDS011;4164;49.844;8.830;2022-11-14T10:42:49;9.93;;;8.03;;
8247;SDS011;4164;49.844;8.830;2022-11-14T10:45:28;7.57;;;6.17;;
8247;SDS011;4164;49.844;8.830;2022-11-14T10:48:07;6.67;;;5.87;;
8247;SDS011;4164;49.844;8.830;2022-11-14T10:53:27;5.27;;;3.50;;
8247;SDS011;4164;49.844;8.830;2022-11-14T10:56:02;3.43;;;2.97;;
8247;SDS011;4164;49.844;8.830;2022-11-14T10:58:28;4.10;;;3.17;;
8247;SDS011;4164;49.844;8.830;2022-11-14T11:00:54;3.20;;;2.17;;
8247;SDS011;4164;49.844;8.830;2022-11-14T11:03:19;5.87;;;2.73;;
8247;SDS011;4164;49.844;8.830;2022-11-14T11:06:03;7.13;;;3.10;;
8247;SDS011;4164;49.844;8.830;2022-11-14T11:08:29;4.40;;;3.00;;
8247;SDS011;4164;49.844;8.830;2022-11-14T11:11:13;3.17;;;2.70;;
8247;SDS011;4164;49.844;8.830;2022-11-14T11:13:57;3.90;;;2.93;;
8247;SDS011;4164;49.844;8.830;2022-11-14T11:16:25;3.73;;;2.97;;
8247;SDS011;4164;49.844;8.830;2022-11-14T11:18:52;4.30;;;2.90;;
8247;SDS011;4164;49.844;8.830;2022-11-14T11:21:19;5.03;;;2.67;;
8247;SDS011;4164;49.844;8.830;2022-11-14T11:23:50;4.93;;;3.27;;
8247;SDS011;4164;49.844;8.830;2022-11-14T11:29:05;4.13;;;2.90;;
8247;SDS011;4164;49.844;8.830;2022-11-14T11:31:48;3.70;;;2.70;;
8247;SDS011;4164;49.844;8.830;2022-11-14T11:34:17;4.07;;;2.87;;
8247;SDS011;4164;49.844;8.830;2022-11-14T11:37:13;3.30;;;2.87;;
8247;SDS011;4164;49.844;8.830;2022-11-14T11:39:51;3.47;;;2.57;;
8247;SDS011;4164;49.844;8.830;2022-11-14T11:43:03;3.43;;;2.80;;
8247;SDS011;4164;49.844;8.830;2022-11-14T11:45:15;4.20;;;3.40;;
8247;SDS011;4164;49.844;8.830;2022-11-14T11:47:49;3.87;;;3.43;;
8247;SDS011;4164;49.844;8.830;2022-11-14T11:50:27;2.83;;;2.40;;
8247;SDS011;4164;49.844;8.830;2022-11-14T11:55:42;2.97;;;2.53;;
8247;SDS011;4164;49.844;8.830;2022-11-14T12:00:44;4.83;;;2.83;;
8247;SDS011;4164;49.844;8.830;2022-11-14T12:03:11;5.63;;;2.87;;
8247;SDS011;4164;49.844;8.830;2022-11-14T12:06:02;4.10;;;2.47;;
8247;SDS011;4164;49.844;8.830;2022-11-14T12:08:54;2.80;;;2.30;;
8247;SDS011;4164;49.844;8.830;2022-11-14T12:11:29;3.87;;;2.50;;
8247;SDS011;4164;49.844;8.830;2022-11-14T12:14:01;2.17;;;1.97;;
8247;SDS011;4164;49.844;8.830;2022-11-14T12:19:26;2.23;;;2.03;;
8247;SDS011;4164;49.844;8.830;2022-11-14T12:22:07;3.30;;;2.30;;
8247;SDS011;4164;49.844;8.830;2022-11-14T12:27:44;2.97;;;2.37;;
8247;SDS011;4164;49.844;8.830;2022-11-14T12:30:19;3.33;;;2.13;;
8247;SDS011;4164;49.844;8.830;2022-11-14T12:37:57;2.73;;;2.30;;
8247;SDS011;4164;49.844;8.830;2022-11-14T12:40:34;4.30;;;2.50;;
8247;SDS011;4164;49.844;8.830;2022-11-14T12:43:02;2.87;;;2.40;;
8247;SDS011;4164;49.844;8.830;2022-11-14T12:48:14;3.70;;;2.13;;
8247;SDS011;4164;49.844;8.830;2022-11-14T12:50:54;3.50;;;2.70;;
8247;SDS011;4164;49.844;8.830;2022-11-14T12:53:39;3.10;;;2.80;;
8247;SDS011;4164;49.844;8.830;2022-11-14T12:59:07;4.13;;;2.70;;
8247;SDS011;4164;49.844;8.830;2022-11-14T13:01:47;3.00;;;2.60;;
8247;SDS011;4164;49.844;8.830;2022-11-14T13:04:17;4.37;;;2.53;;
8247;SDS011;4164;49.844;8.830;2022-11-14T13:07:50;3.20;;;2.60;;
8247;SDS011;4164;49.844;8.830;2022-11-14T13:13:08;2.70;;;2.33;;
8247;SDS011;4164;49.844;8.830;2022-11-14T13:15:54;2.97;;;2.57;;
8247;SDS011;4164;49.844;8.830;2022-11-14T13:18:57;2.53;;;2.17;;
8247;SDS011;4164;49.844;8.830;2022-11-14T13:27:25;2.40;;;2.20;;
8247;SDS011;4164;49.844;8.830;2022-11-14T13:29:52;2.90;;;2.27;;
8247;SDS011;4164;49.844;8.830;2022-11-14T13:35:48;4.67;;;2.70;;
8247;SDS011;4164;49.844;8.830;2022-11-14T13:44:03;5.27;;;2.20;;
8247;SDS011;4164;49.844;8.830;2022-11-14T13:49:58;4.80;;;2.73;;
8247;SDS011;4164;49.844;8.830;2022-11-14T13:52:30;4.17;;;2.53;;
8247;SDS011;4164;49.844;8.830;2022-11-14T13:54:57;4.77;;;2.43;;
8247;SDS011;4164;49.844;8.830;2022-11-14T14:00:12;6.87;;;2.60;;
8247;SDS011;4164;49.844;8.830;2022-11-14T14:02:58;3.90;;;2.67;;
8247;SDS011;4164;49.844;8.830;2022-11-14T14:16:17;3.43;;;2.53;;
8247;SDS011;4164;49.844;8.830;2022-11-14T14:19:17;3.63;;;2.60;;
8247;SDS011;4164;49.844;8.830;2022-11-14T14:21:54;5.00;;;2.50;;
8247;SDS011;4164;49.844;8.830;2022-11-14T14:27:28;2.97;;;2.57;;
8247;SDS011;4164;49.844;8.830;2022-11-14T14:30:15;3.97;;;2.60;;
8247;SDS011;4164;49.844;8.830;2022-11-14T14:32:42;4.50;;;2.70;;
8247;SDS011;4164;49.844;8.830;2022-11-14T14:35:21;3.13;;;2.60;;
8247;SDS011;4164;49.844;8.830;2022-11-14T14:37:52;3.07;;;2.73;;
8247;SDS011;4164;49.844;8.830;2022-11-14T14:40:26;4.13;;;2.40;;
8247;SDS011;4164;49.844;8.830;2022-11-14T14:43:00;3.13;;;2.40;;
8247;SDS011;4164;49.844;8.830;2022-11-14T14:45:29;3.50;;;2.90;;
8247;SDS011;4164;49.844;8.830;2022-11-14T14:48:03;2.87;;;2.40;;
8247;SDS011;4164;49.844;8.830;2022-11-14T14:50:41;3.57;;;2.50;;
8247;SDS011;4164;49.844;8.830;2022-11-14T14:53:17;3.00;;;2.43;;
8247;SDS011;4164;49.844;8.830;2022-11-14T14:55:52;3.07;;;2.43;;
8247;SDS011;4164;49.844;8.830;2022-11-14T15:01:03;3.13;;;2.43;;
8247;SDS011;4164;49.844;8.830;2022-11-14T15:03:36;5.27;;;2.30;;
8247;SDS011;4164;49.844;8.830;2022-11-14T15:06:06;6.93;;;3.17;;
8247;SDS011;4164;49.844;8.830;2022-11-14T15:08:53;10.20;;;6.30;;
8247;SDS011;4164;49.844;8.830;2022-11-14T15:11:23;4.67;;;3.90;;
8247;SDS011;4164;49.844;8.830;2022-11-14T15:13:51;7.23;;;4.50;;
8247;SDS011;4164;49.844;8.830;2022-11-14T15:16:23;8.30;;;4.50;;
8247;SDS011;4164;49.844;8.830;2022-11-14T15:18:50;6.70;;;3.97;;
8247;SDS011;4164;49.844;8.830;2022-11-14T15:26:37;6.47;;;3.70;;
8247;SDS011;4164;49.844;8.830;2022-11-14T15:29:12;5.13;;;3.37;;
8247;SDS011;4164;49.844;8.830;2022-11-14T15:31:42;6.47;;;4.23;;
8247;SDS011;4164;49.844;8.830;2022-11-14T15:34:23;5.30;;;3.27;;
8247;SDS011;4164;49.844;8.830;2022-11-14T15:39:41;4.70;;;3.10;;
8247;SDS011;4164;49.844;8.830;2022-11-14T15:44:48;4.03;;;2.80;;
8247;SDS011;4164;49.844;8.830;2022-11-14T15:49:58;6.17;;;2.97;;
8247;SDS011;4164;49.844;8.830;2022-11-14T15:52:36;3.57;;;2.80;;
8247;SDS011;4164;49.844;8.830;2022-11-14T15:55:17;3.37;;;3.07;;
8247;SDS011;4164;49.844;8.830;2022-11-14T15:57:44;6.00;;;3.30;;
8247;SDS011;4164;49.844;8.830;2022-11-14T16:00:12;4.53;;;3.07;;
8247;SDS011;4164;49.844;8.830;2022-11-14T16:02:56;7.47;;;3.37;;
8247;SDS011;4164;49.844;8.830;2022-11-14T16:05:26;8.07;;;3.20;;
8247;SDS011;4164;49.844;8.830;2022-11-14T16:07:52;7.30;;;3.20;;
8247;SDS011;4164;49.844;8.830;2022-11-14T16:10:19;5.60;;;3.37;;
8247;SDS011;4164;49.844;8.830;2022-11-14T16:12:46;7.47;;;3.93;;
8247;SDS011;4164;49.844;8.830;2022-11-14T16:15:12;4.03;;;2.60;;
8247;SDS011;4164;49.844;8.830;2022-11-14T16:17:42;4.80;;;2.90;;
8247;SDS011;4164;49.844;8.830;2022-11-14T16:20:12;4.63;;;2.93;;
8247;SDS011;4164;49.844;8.830;2022-11-14T16:22:43;4.30;;;3.07;;
8247;SDS011;4164;49.844;8.830;2022-11-14T16:25:15;4.13;;;3.40;;
8247;SDS011;4164;49.844;8.830;2022-11-14T16:27:47;5.07;;;3.40;;
8247;SDS011;4164;49.844;8.830;2022-11-14T16:30:14;5.07;;;2.83;;
8247;SDS011;4164;49.844;8.830;2022-11-14T16:32:41;4.17;;;2.87;;
8247;SDS011;4164;49.844;8.830;2022-11-14T16:35:17;3.43;;;2.77;;
8247;SDS011;4164;49.844;8.830;2022-11-14T16:37:47;4.10;;;2.60;;
8247;SDS011;4164;49.844;8.830;2022-11-14T16:40:14;3.23;;;2.73;;
8247;SDS011;4164;49.844;8.830;2022-11-14T16:42:43;4.87;;;3.03;;
8247;SDS011;4164;49.844;8.830;2022-11-14T16:45:09;5.17;;;3.03;;
8247;SDS011;4164;49.844;8.830;2022-11-14T16:47:35;4.77;;;3.30;;
8247;SDS011;4164;49.844;8.830;2022-11-14T16:50:01;7.20;;;4.07;;
8247;SDS011;4164;49.844;8.830;2022-11-14T16:52:27;6.73;;;3.33;;